Another Hard Day at the Office Weather Stats

 
 
 

High monthly outside Temperature, 22.8 , C
Low monthly outside Temperature, -1.0 , C
High yearly outside Temperature, 30.9 , C
Low yearly outside Temperature, -2.2 , C

Low monthly barometer, 1001.1 , mb
High monthly barometer, 1028.0 , mb
Low yearly barometer, 975.0 , mb
High yearly barometer 1041.1 , mb

High wind speed, 25.0 , mph
Time of High wind speed, 21:37 , mph
High monthly wind speed, 47.0 , mph
High yearly wind speed, 55.0 , mph

 

 




3126
                    Temp     Hi    Low   Out    Dew  Wind  Wind   Wind    Hi    Hi   Wind   Heat    THW                Rain    Heat    Cool    In     In    In     In     In   In Air  Wind  Wind    ISS   Arc.
  Date    Time     Out   Temp   Temp   Hum    Pt. Speed   Dir    Run Speed   Dir  Chill  Index  Index   Bar    Rain  Rate    D-D     D-D    Temp   Hum    Dew   Heat    EMC Density  Samp   Tx   Recept  Int.
---------------------------------------------------------------------------------------------------------------------------------------------------------------------------------------------------------------
19/10/19   0:05   13.9   13.9   13.8    79   10.4  17.0    SW   1.42  22.0    SW   10.3   13.8   10.2   999.1  0.00  0.00   0.015   0.000   23.1    51   12.4   22.9   9.38  .0723    114    1    100.0    5 
19/10/19   0:10   14.1   14.1   13.9    79   10.5  17.0    SW   1.42  24.0    SW   10.6   13.9   10.4   999.1  0.00  0.00   0.015   0.000   23.1    51   12.4   22.9   9.38  .0723    117    1    100.0    5 
19/10/19   0:15   14.2   14.2   14.1    80   10.8  17.0    SW   1.42  23.0    SW   10.6   14.1   10.5   999.0  0.00  0.00   0.014   0.000   23.0    51   12.3   22.8   9.38  .0723    117    1    100.0    5 
19/10/19   0:20   14.2   14.2   14.2    79   10.6  20.0    SW   1.67  28.0    SW   10.3   14.1   10.1   998.9  0.00  0.00   0.014   0.000   23.0    51   12.3   22.8   9.38  .0723    117    1    100.0    5 
19/10/19   0:25   14.1   14.2   14.1    77   10.1  23.0    SW   1.92  30.0    SW    9.8   13.9    9.6   998.8  0.00  0.00   0.015   0.000   23.0    51   12.3   22.8   9.38  .0723    116    1    100.0    5 
19/10/19   0:30   14.1   14.1   14.0    79   10.5  20.0    SW   1.67  27.0    SW   10.1   13.9    9.9   998.9  0.00  0.00   0.015   0.000   22.9    51   12.3   22.8   9.38  .0724    117    1    100.0    5 
19/10/19   0:35   13.9   14.0   13.8    77    9.9  18.0    SW   1.50  27.0    SW   10.2   13.7    9.9   998.9  0.00  0.00   0.015   0.000   22.9    51   12.3   22.8   9.38  .0724    115    1    100.0    5 
19/10/19   0:40   14.0   14.0   13.9    77   10.0  19.0    SW   1.58  26.0    SW   10.1   13.8    9.9   998.9  0.00  0.00   0.015   0.000   22.9    51   12.2   22.7   9.39  .0724    117    1    100.0    5 
19/10/19   0:45   14.2   14.2   14.0    78   10.4  19.0    SW   1.58  23.0    SW   10.3   14.0   10.2   998.9  0.00  0.00   0.014   0.000   22.9    51   12.2   22.7   9.39  .0724    117    1    100.0    5 
19/10/19   0:50   14.2   14.2   14.2    79   10.6  18.0    SW   1.50  23.0    SW   10.6   14.1   10.4   999.0  0.00  0.00   0.014   0.000   22.8    51   12.2   22.6   9.39  .0724    116    1    100.0    5 
19/10/19   0:55   14.2   14.2   14.2    79   10.6  16.0    SW   1.33  24.0    SW   10.8   14.1   10.7   999.1  0.00  0.00   0.014   0.000   22.8    51   12.2   22.6   9.39  .0724    115    1    100.0    5 
19/10/19   1:00   14.2   14.2   14.2    79   10.6  17.0    SW   1.42  26.0    SW   10.7   14.1   10.5   999.0  0.00  0.00   0.014   0.000   22.8    51   12.1   22.6   9.39  .0724    117    1    100.0    5 
19/10/19   1:05   12.8   14.2   12.8    81    9.6  24.0   WSW   2.00  32.0   WSW    8.2   12.6    8.0   999.6  0.02  0.25   0.019   0.000   22.8    51   12.1   22.6   9.39  .0725    117    1    100.0    5 
19/10/19   1:10   12.1   12.7   12.1    82    9.1  22.0   WSW   1.83  33.0    SW    7.7   12.0    7.6   999.5  0.02  0.43   0.022   0.000   22.7    51   12.1   22.5   9.39  .0725    116    1    100.0    5 
19/10/19   1:15   12.2   12.2   12.1    82    9.2  20.0    SW   1.67  26.0   WSW    7.9   12.1    7.8   999.3  0.00  0.08   0.021   0.000   22.7    51   12.1   22.5   9.39  .0725    117    1    100.0    5 
19/10/19   1:20   12.3   12.3   12.2    83    9.5  20.0    SW   1.67  26.0   WSW    8.1   12.2    8.0   999.1  0.01  0.08   0.021   0.000   22.7    51   12.1   22.5   9.39  .0724    118    1    100.0    5 
19/10/19   1:25   12.6   12.6   12.3    82    9.6  17.0    SW   1.42  24.0    SW    8.8   12.4    8.7   998.9  0.00  0.07   0.020   0.000   22.7    51   12.0   22.4   9.39  .0724    116    1    100.0    5 
19/10/19   1:30   12.9   12.9   12.6    82    9.9  18.0    SW   1.50  24.0   WSW    9.1   12.8    8.9   998.9  0.00  0.04   0.019   0.000   22.6    52   12.3   22.4   9.60  .0724    115    1    100.0    5 
19/10/19   1:35   13.0   13.0   12.9    82   10.0  19.0    SW   1.58  25.0    SW    9.0   12.9    8.9   998.9  0.00  0.00   0.019   0.000   22.6    52   12.3   22.4   9.60  .0724    117    1    100.0    5 
19/10/19   1:40   13.3   13.3   13.0    81   10.1  16.0    SW   1.33  21.0    SW    9.8   13.1    9.6   998.8  0.00  0.00   0.018   0.000   22.6    52   12.2   22.3   9.60  .0725    116    1    100.0    5 
19/10/19   1:45   13.2   13.4   13.2    81   10.0  18.0    SW   1.50  25.0    SW    9.3   13.0    9.2   998.9  0.00  0.00   0.018   0.000   22.6    52   12.2   22.3   9.60  .0725    117    1    100.0    5 
19/10/19   1:50   13.3   13.3   13.2    81   10.1  18.0    SW   1.50  23.0    SW    9.4   13.1    9.3   998.8  0.00  0.00   0.018   0.000   22.5    52   12.2   22.2   9.60  .0725    117    1    100.0    5 
19/10/19   1:55   13.6   13.6   13.3    80   10.2  20.0    SW   1.67  26.0    SW    9.5   13.4    9.3   998.8  0.00  0.00   0.017   0.000   22.5    52   12.2   22.2   9.60  .0725    117    1    100.0    5 
19/10/19   2:00   13.8   13.8   13.6    80   10.4  19.0    SW   1.58  24.0    SW    9.9   13.6    9.7   998.8  0.00  0.00   0.016   0.000   22.5    52   12.2   22.2   9.60  .0725    117    1    100.0    5 
19/10/19   2:05   13.8   13.8   13.8    80   10.4  17.0    SW   1.42  24.0    SW   10.2   13.7   10.1   998.7  0.00  0.00   0.016   0.000   22.4    52   12.1   22.1   9.60  .0725    116    1    100.0    5 
19/10/19   2:10   13.9   13.9   13.8    80   10.5  16.0    SW   1.33  22.0    SW   10.4   13.7   10.3   998.7  0.00  0.00   0.015   0.000   22.4    52   12.1   22.1   9.60  .0725    117    1    100.0    5 
19/10/19   2:15   13.9   13.9   13.9    80   10.5  14.0    SW   1.17  22.0    SW   10.9   13.8   10.7   998.7  0.00  0.00   0.015   0.000   22.4    52   12.1   22.1   9.60  .0725    117    1    100.0    5 
19/10/19   2:20   13.9   13.9   13.9    80   10.5  13.0    SW   1.08  18.0   SSW   11.1   13.8   10.9   998.6  0.00  0.00   0.015   0.000   22.4    52   12.0   22.1   9.60  .0725    117    1    100.0    5 
19/10/19   2:25   14.1   14.1   14.0    80   10.7  16.0    SW   1.33  22.0    SW   10.7   13.9   10.5   998.7  0.00  0.00   0.015   0.000   22.4    52   12.0   22.1   9.60  .0725    118    1    100.0    5 
19/10/19   2:30   12.8   14.2   12.8    80    9.5  25.0    SW   2.08  35.0    SW    8.1   12.7    7.9   999.0  0.02  0.63   0.019   0.000   22.4    52   12.0   22.1   9.60  .0725    117    1    100.0    5 
19/10/19   2:35   12.2   12.8   12.2    81    9.0  12.0   WSW   1.00  21.0   WSW    9.3   12.0    9.2   998.8  0.00  0.11   0.021   0.000   22.4    52   12.0   22.1   9.60  .0725    117    1    100.0    5 
19/10/19   2:40   12.8   12.8   12.2    82    9.8  11.0   WSW   0.92  16.0    SW   10.3   12.7   10.2   998.7  0.00  0.06   0.019   0.000   22.3    52   12.0   21.9   9.61  .0725    116    1    100.0    5 
19/10/19   2:45   13.2   13.2   12.8    82   10.2   8.0    SW   0.67  16.0   SSW   11.9   13.1   11.8   998.6  0.00  0.04   0.018   0.000   22.3    52   12.0   21.9   9.61  .0725    117    1    100.0    5 
19/10/19   2:50   13.7   13.7   13.2    82   10.7  17.0    SW   1.42  22.0   SSW   10.1   13.6   10.0   998.4  0.01  0.04   0.016   0.000   22.3    52   11.9   21.9   9.61  .0725    117    1    100.0    5 
19/10/19   2:55   13.8   13.9   13.7    80   10.4  19.0    SW   1.58  25.0    SW    9.9   13.7    9.8   998.5  0.00  0.00   0.016   0.000   22.3    52   11.9   21.9   9.61  .0725    116    1    100.0    5 
19/10/19   3:00   14.1   14.1   13.8    79   10.5  18.0    SW   1.50  26.0    SW   10.3   13.9   10.2   998.6  0.00  0.00   0.015   0.000   22.2    52   11.9   21.8   9.61  .0725    117    1    100.0    5 
19/10/19   3:05   13.8   14.1   13.8    78   10.0  18.0    SW   1.50  25.0    SW   10.1   13.6    9.8   998.5  0.00  0.00   0.016   0.000   22.2    52   11.9   21.8   9.61  .0725    116    1    100.0    5 
19/10/19   3:10   13.4   13.8   13.4    78    9.7  19.0    SW   1.58  25.0    SW    9.5   13.2    9.3   998.4  0.00  0.00   0.017   0.000   22.2    52   11.9   21.8   9.61  .0725    117    1    100.0    5 
19/10/19   3:15   13.8   13.8   13.4    80   10.4  14.0    SW   1.17  21.0    SW   10.7   13.6   10.6   998.4  0.00  0.00   0.016   0.000   22.2    52   11.8   21.7   9.61  .0725    117    1    100.0    5 
19/10/19   3:20   13.3   13.8   13.3    79    9.8  18.0   SSW   1.50  23.0   SSW    9.5   13.1    9.3   998.4  0.00  0.00   0.017   0.000   22.2    52   11.8   21.7   9.61  .0725    117    1    100.0    5 
19/10/19   3:25   13.5   13.5   13.3    80   10.1  17.0   SSW   1.42  23.0    SW    9.8   13.3    9.7   998.4  0.00  0.00   0.017   0.000   22.1    52   11.8   21.7   9.61  .0726    118    1    100.0    5 
19/10/19   3:30   13.4   13.7   13.4    80   10.1  13.0     W   1.08  26.0    SW   10.5   13.3   10.3   998.5  0.00  0.00   0.017   0.000   22.1    52   11.8   21.7   9.61  .0726    116    1    100.0    5 
19/10/19   3:35   12.9   13.4   12.9    80    9.6   2.0     W   0.17  11.0     W   12.9   12.8   12.8   998.4  0.00  0.00   0.019   0.000   22.1    52   11.8   21.7   9.61  .0726    116    1    100.0    5 
19/10/19   3:40   12.7   12.9   12.7    80    9.4   1.0   WSW   0.08   6.0   WSW   12.7   12.6   12.6   998.5  0.00  0.00   0.019   0.000   22.1    52   11.8   21.7   9.61  .0726    116    1    100.0    5 
19/10/19   3:45   12.7   12.7   12.7    81    9.5   5.0   WSW   0.42  14.0   WSW   12.2   12.6   12.1   998.5  0.00  0.00   0.019   0.000   22.1    52   11.7   21.6   9.62  .0726    117    1    100.0    5 
19/10/19   3:50   12.9   12.9   12.7    81    9.8   5.0   WSW   0.42  10.0   WSW   12.5   12.8   12.3   998.5  0.00  0.00   0.019   0.000   22.1    52   11.7   21.6   9.62  .0726    116    1    100.0    5 
19/10/19   3:55   13.2   13.2   12.9    81   10.0   9.0   WSW   0.75  16.0   WSW   11.4   13.0   11.3   998.3  0.00  0.00   0.018   0.000   22.1    52   11.8   21.7   9.61  .0726    115    1    100.0    5 
19/10/19   4:00   13.3   13.3   13.2    81   10.1   8.0   WSW   0.67  15.0   WSW   12.1   13.2   11.9   998.2  0.00  0.00   0.017   0.000   22.1    52   11.7   21.6   9.62  .0726    117    1    100.0    5 
19/10/19   4:05   13.4   13.4   13.3    81   10.2   6.0   WSW   0.50  11.0   WSW   12.8   13.3   12.6   998.2  0.00  0.00   0.017   0.000   22.1    52   11.7   21.6   9.62  .0726    116    1    100.0    5 
19/10/19   4:10   13.7   13.7   13.4    81   10.5  10.0   WSW   0.83  14.0   WSW   11.7   13.6   11.6   998.2  0.00  0.00   0.016   0.000   22.1    52   11.7   21.6   9.62  .0726    117    1    100.0    5 
19/10/19   4:15   13.7   13.8   13.7    80   10.3  12.0    SW   1.00  18.0    SW   11.1   13.5   10.9   998.4  0.00  0.00   0.016   0.000   22.0    52   11.7   21.5   9.62  .0726    114    1    100.0    5 
19/10/19   4:20   13.8   13.8   13.7    79   10.3  15.0    SW   1.25  19.0   WSW   10.6   13.7   10.4   998.3  0.00  0.00   0.016   0.000   22.0    52   11.7   21.5   9.62  .0726    117    1    100.0    5 
19/10/19   4:25   13.9   13.9   13.8    79   10.3  13.0   WSW   1.08  18.0   WSW   11.1   13.7   10.9   998.1  0.00  0.00   0.015   0.000   21.9    52   11.6   21.4   9.62  .0726    117    1    100.0    5 
19/10/19   4:30   13.8   13.9   13.8    80   10.4  13.0   WSW   1.08  21.0   WSW   10.9   13.6   10.8   998.1  0.00  0.00   0.016   0.000   21.9    52   11.6   21.4   9.62  .0726    117    1    100.0    5 
19/10/19   4:35   13.4   13.8   13.4    80   10.1   7.0   WSW   0.58  17.0     W   12.6   13.3   12.4   998.1  0.00  0.00   0.017   0.000   21.9    52   11.6   21.4   9.62  .0726    117    1    100.0    5 
19/10/19   4:40   13.2   13.4   13.2    80    9.8   3.0   WSW   0.25  12.0   WSW   13.2   13.0   13.0   998.1  0.00  0.00   0.018   0.000   21.9    52   11.6   21.3   9.62  .0726    116    1    100.0    5 
19/10/19   4:45   13.2   13.2   13.2    81   10.0   4.0   WSW   0.33  12.0     W   13.0   13.0   12.8   998.1  0.00  0.00   0.018   0.000   21.9    52   11.6   21.3   9.62  .0726    116    1    100.0    5 
19/10/19   4:50   13.1   13.2   13.1    81    9.9   2.0     W   0.17  10.0   WSW   13.1   12.9   12.9   998.1  0.00  0.00   0.018   0.000   21.9    52   11.6   21.3   9.62  .0726    117    1    100.0    5 
19/10/19   4:55   13.1   13.1   13.1    81    9.9   5.0   WSW   0.42  12.0   WSW   12.7   12.9   12.5   998.1  0.00  0.00   0.018   0.000   21.8    52   11.5   21.2   9.62  .0726    117    1    100.0    5 
19/10/19   5:00   13.3   13.3   13.1    81   10.1   6.0   WSW   0.50  14.0   WSW   12.6   13.1   12.4   998.0  0.00  0.00   0.018   0.000   21.8    52   11.5   21.2   9.62  .0726    116    1    100.0    5 
19/10/19   5:05   13.4   13.4   13.3    81   10.2   5.0   WSW   0.42  16.0     W   13.0   13.2   12.8   998.0  0.00  0.00   0.017   0.000   21.8    52   11.5   21.2   9.62  .0726    117    1    100.0    5 
19/10/19   5:10   13.4   13.4   13.4    81   10.2   9.0   WSW   0.75  16.0   WSW   11.8   13.3   11.6   998.0  0.00  0.00   0.017   0.000   21.8    52   11.5   21.2   9.63  .0726    117    1    100.0    5 
19/10/19   5:15   13.7   13.7   13.4    81   10.5  12.0   WSW   1.00  20.0   WSW   11.1   13.5   10.9   998.1  0.00  0.00   0.016   0.000   21.8    53   11.8   21.2   9.80  .0726    117    1    100.0    5 
19/10/19   5:20   13.7   13.7   13.7    81   10.5  10.0   WSW   0.83  19.0   WSW   11.7   13.5   11.5   998.1  0.00  0.00   0.016   0.000   21.8    53   11.8   21.2   9.80  .0726    116    1    100.0    5 
19/10/19   5:25   13.7   13.7   13.6    81   10.5   9.0   WSW   0.75  16.0   WSW   12.1   13.5   11.9   998.2  0.00  0.00   0.016   0.000   21.8    53   11.8   21.2   9.80  .0726    117    1    100.0    5 
19/10/19   5:30   13.5   13.6   13.5    81   10.3   9.0   WSW   0.75  16.0   WSW   11.8   13.3   11.7   998.3  0.00  0.00   0.017   0.000   21.8    53   11.8   21.2   9.80  .0726    117    1    100.0    5 
19/10/19   5:35   13.4   13.5   13.4    80   10.1   9.0   WSW   0.75  20.0   WSW   11.8   13.3   11.6   998.2  0.00  0.00   0.017   0.000   21.8    53   11.8   21.2   9.80  .0726    118    1    100.0    5 
19/10/19   5:40   13.4   13.4   13.3    80   10.0  13.0   WSW   1.08  19.0   WSW   10.4   13.2   10.3   998.3  0.00  0.00   0.017   0.000   21.8    53   11.8   21.3   9.80  .0726    115    1    100.0    5 
19/10/19   5:45   13.3   13.4   13.3    79    9.8  11.0   WSW   0.92  18.0   WSW   10.9   13.1   10.7   998.3  0.00  0.00   0.017   0.000   21.8    53   11.8   21.3   9.80  .0726    117    1    100.0    5 
19/10/19   5:50   13.3   13.3   13.3    79    9.8   9.0   WSW   0.75  15.0   WSW   11.7   13.1   11.4   998.3  0.00  0.00   0.017   0.000   21.8    53   11.8   21.3   9.80  .0726    117    1    100.0    5 
19/10/19   5:55   13.4   13.4   13.3    79    9.8   8.0   WSW   0.67  15.0     W   12.1   13.2   11.9   998.3  0.00  0.00   0.017   0.000   21.8    53   11.8   21.3   9.80  .0726    117    1    100.0    5 
19/10/19   6:00   13.5   13.5   13.4    79    9.9   8.0   WSW   0.67  15.0   WSW   12.3   13.3   12.1   998.3  0.00  0.00   0.017   0.000   21.8    53   11.8   21.3   9.80  .0726    117    1    100.0    5 
19/10/19   6:05   13.6   13.6   13.5    80   10.2   3.0   WSW   0.25  10.0   WSW   13.6   13.4   13.4   998.2  0.00  0.00   0.017   0.000   21.8    53   11.8   21.3   9.80  .0726    116    1    100.0    5 
19/10/19   6:10   13.4   13.6   13.4    80   10.1   0.0   WSW   0.00   5.0   WSW   13.4   13.3   13.3   998.3  0.00  0.00   0.017   0.000   21.9    53   11.9   21.3   9.79  .0726    117    1    100.0    5 
19/10/19   6:15   13.3   13.4   13.3    79    9.7   0.0     W   0.00   5.0     W   13.3   13.1   13.1   998.4  0.00  0.00   0.018   0.000   21.9    53   11.9   21.3   9.79  .0726    117    1    100.0    5 
19/10/19   6:20   13.1   13.3   13.1    80    9.7   0.0   ---   0.00   0.0   ---   13.1   12.9   12.9   998.5  0.00  0.00   0.018   0.000   21.9    53   11.9   21.3   9.79  .0726    116    1    100.0    5 
19/10/19   6:25   12.9   13.1   12.9    80    9.5   1.0   WNW   0.08   7.0   WNW   12.9   12.7   12.7   998.5  0.03  1.00   0.019   0.000   21.9    53   11.9   21.3   9.79  .0726    117    1    100.0    5 
19/10/19   6:30   12.6   12.9   12.6    81    9.4   2.0   WSW   0.17  11.0     W   12.6   12.4   12.4   998.4  0.02  0.33   0.020   0.000   21.9    53   11.9   21.4   9.79  .0726    117    1    100.0    5 
19/10/19   6:35   12.4   12.6   12.4    81    9.2   0.0     W   0.00   4.0     W   12.4   12.2   12.2   998.5  0.00  0.09   0.021   0.000   21.9    53   11.9   21.4   9.79  .0726    117    1    100.0    5 
19/10/19   6:40   12.2   12.4   12.2    81    9.1   0.0     W   0.00   2.0     W   12.2   12.1   12.1   998.4  0.00  0.05   0.021   0.000   22.0    53   12.0   21.5   9.79  .0726    116    1    100.0    5 
19/10/19   6:45   12.1   12.2   12.1    82    9.1   0.0     W   0.00   1.0     W   12.1   11.9   11.9   998.5  0.00  0.00   0.022   0.000   22.0    53   12.0   21.5   9.79  .0726    116    1    100.0    5 
19/10/19   6:50   11.9   12.1   11.9    82    9.0   0.0   ---   0.00   0.0   ---   11.9   11.8   11.8   998.5  0.00  0.00   0.022   0.000   22.0    53   12.0   21.5   9.79  .0726    117    1    100.0    5 
19/10/19   6:55   11.9   11.9   11.9    82    8.9   0.0   ---   0.00   0.0   ---   11.9   11.8   11.8   998.6  0.00  0.00   0.022   0.000   22.0    53   12.0   21.5   9.79  .0726    117    1    100.0    5 
19/10/19   7:00   11.8   11.9   11.8    82    8.9   0.0   ---   0.00   0.0   ---   11.8   11.7   11.7   998.6  0.00  0.00   0.023   0.000   22.1    54   12.3   21.7   9.92  .0726    117    1    100.0    5 
19/10/19   7:05   11.8   11.8   11.8    82    8.8   0.0   ---   0.00   0.0   ---   11.8   11.7   11.7   998.6  0.00  0.00   0.023   0.000   22.1    54   12.3   21.7   9.92  .0726    116    1    100.0    5 
19/10/19   7:10   11.8   11.8   11.8    82    8.8   0.0   ---   0.00   0.0   ---   11.8   11.7   11.7   998.7  0.00  0.00   0.023   0.000   22.1    54   12.3   21.7   9.92  .0726    115    1    100.0    5 
19/10/19   7:15   11.8   11.8   11.7    83    9.0   0.0   ---   0.00   0.0   ---   11.8   11.7   11.7   998.6  0.00  0.00   0.023   0.000   22.1    54   12.4   21.7   9.91  .0725    117    1    100.0    5 
19/10/19   7:20   11.7   11.8   11.7    83    8.9   0.0   ---   0.00   0.0   ---   11.7   11.6   11.6   998.7  0.00  0.00   0.023   0.000   22.1    54   12.4   21.7   9.91  .0725    117    1    100.0    5 
19/10/19   7:25   11.6   11.7   11.6    83    8.8   0.0   ---   0.00   0.0   ---   11.6   11.5   11.5   998.8  0.00  0.00   0.023   0.000   22.1    54   12.4   21.7   9.91  .0725    117    1    100.0    5 
19/10/19   7:30   11.6   11.7   11.6    83    8.8   0.0     W   0.00   2.0     W   11.6   11.4   11.4   998.7  0.00  0.00   0.024   0.000   22.2    54   12.4   21.8   9.91  .0725    117    1    100.0    5 
19/10/19   7:35   11.6   11.6   11.6    83    8.8   0.0     W   0.00   1.0     W   11.6   11.4   11.4   998.8  0.00  0.00   0.024   0.000   22.2    54   12.4   21.8   9.91  .0725    117    1    100.0    5 
19/10/19   7:40   11.6   11.6   11.6    83    8.8   0.0   ---   0.00   0.0   ---   11.6   11.4   11.4   998.8  0.00  0.00   0.024   0.000   22.2    54   12.5   21.9   9.91  .0725    118    1    100.0    5 
19/10/19   7:45   11.6   11.6   11.6    83    8.8   0.0   ---   0.00   0.0   ---   11.6   11.4   11.4   998.9  0.00  0.00   0.024   0.000   22.2    54   12.5   21.9   9.91  .0725    116    1    100.0    5 
19/10/19   7:50   11.6   11.6   11.6    83    8.8   0.0   ---   0.00   0.0   ---   11.6   11.4   11.4   998.9  0.00  0.00   0.024   0.000   22.2    54   12.5   21.9   9.91  .0725    117    1    100.0    5 
19/10/19   7:55   11.6   11.6   11.6    83    8.8   0.0   ---   0.00   0.0   ---   11.6   11.4   11.4   998.9  0.00  0.00   0.024   0.000   22.3    54   12.5   22.0   9.91  .0725    114    1    100.0    5 
19/10/19   8:00   11.6   11.6   11.6    83    8.8   0.0   WSW   0.00   1.0   WSW   11.6   11.5   11.5   998.9  0.00  0.00   0.023   0.000   22.3    54   12.5   22.0   9.91  .0725    114    1    100.0    5 
19/10/19   8:05   11.6   11.7   11.6    83    8.8   0.0   ---   0.00   0.0   ---   11.6   11.5   11.5   999.0  0.00  0.00   0.023   0.000   22.3    54   12.5   22.0   9.91  .0725    117    1    100.0    5 
19/10/19   8:10   11.7   11.7   11.6    83    8.9   0.0   ---   0.00   0.0   ---   11.7   11.6   11.6   999.0  0.00  0.00   0.023   0.000   22.3    54   12.6   22.1   9.91  .0725    117    1    100.0    5 
19/10/19   8:15   11.7   11.7   11.7    83    8.9   0.0   ---   0.00   0.0   ---   11.7   11.6   11.6   999.0  0.00  0.00   0.023   0.000   22.3    54   12.6   22.1   9.91  .0725    115    1    100.0    5 
19/10/19   8:20   11.8   11.8   11.7    83    9.0   0.0   SSW   0.00   1.0   SSW   11.8   11.7   11.7   999.1  0.00  0.00   0.023   0.000   22.4    54   12.6   22.2   9.90  .0725    116    1    100.0    5 
19/10/19   8:25   11.8   11.8   11.8    83    9.0   0.0    SW   0.00   1.0    SW   11.8   11.7   11.7   999.2  0.00  0.00   0.023   0.000   22.4    54   12.6   22.2   9.90  .0725    116    1    100.0    5 
19/10/19   8:30   11.9   11.9   11.8    83    9.1   0.0    SW   0.00   1.0    SW   11.9   11.8   11.8   999.2  0.00  0.00   0.022   0.000   22.4    54   12.7   22.2   9.90  .0725    117    1    100.0    5 
19/10/19   8:35   12.0   12.0   11.9    83    9.2   0.0   WSW   0.00   4.0   WSW   12.0   11.9   11.9   999.3  0.00  0.00   0.022   0.000   22.5    54   12.7   22.3   9.90  .0725    117    1    100.0    5 
19/10/19   8:40   12.0   12.1   12.0    83    9.2   0.0   WSW   0.00   3.0     W   12.0   11.9   11.9   999.3  0.00  0.00   0.022   0.000   22.5    54   12.7   22.3   9.90  .0725    117    1    100.0    5 
19/10/19   8:45   12.1   12.1   12.0    83    9.3   0.0     W   0.00   3.0   WSW   12.1   11.9   11.9   999.4  0.00  0.00   0.022   0.000   22.5    54   12.7   22.3   9.90  .0725    117    1    100.0    5 
19/10/19   8:50   12.1   12.1   12.1    83    9.3   0.0     W   0.00   4.0     W   12.1   11.9   11.9   999.4  0.00  0.00   0.022   0.000   22.6    54   12.8   22.4   9.90  .0725    117    1    100.0    5 
19/10/19   8:55   12.1   12.1   12.1    83    9.3   1.0     W   0.08   5.0     W   12.1   12.0   12.0   999.4  0.00  0.00   0.022   0.000   22.6    54   12.8   22.4   9.90  .0725    117    1    100.0    5 
19/10/19   9:00   12.1   12.1   12.1    83    9.3   0.0     W   0.00   3.0     W   12.1   12.0   12.0   999.5  0.00  0.00   0.022   0.000   22.6    54   12.8   22.5   9.90  .0724    117    1    100.0    5 
19/10/19   9:05   12.2   12.2   12.1    83    9.4   1.0     W   0.08   6.0     W   12.2   12.1   12.1   999.5  0.00  0.00   0.021   0.000   22.6    54   12.8   22.5   9.90  .0724    116    1    100.0    5 
19/10/19   9:10   12.2   12.2   12.1    83    9.4   0.0     W   0.00   5.0     W   12.2   12.1   12.1   999.5  0.00  0.00   0.021   0.000   22.7    54   12.9   22.6   9.89  .0724    117    1    100.0    5 
19/10/19   9:15   12.2   12.2   12.2    83    9.4   0.0     W   0.00   2.0     W   12.2   12.1   12.1   999.5  0.00  0.00   0.021   0.000   22.7    54   12.9   22.6   9.89  .0724    117    1    100.0    5 
19/10/19   9:20   12.2   12.2   12.2    83    9.4   0.0     W   0.00   5.0     W   12.2   12.1   12.1   999.5  0.00  0.00   0.021   0.000   22.7    54   12.9   22.7   9.89  .0724    117    1    100.0    5 
19/10/19   9:25   12.2   12.2   12.2    83    9.4   0.0     W   0.00   5.0     W   12.2   12.1   12.1   999.5  0.00  0.00   0.021   0.000   22.7    54   12.9   22.7   9.89  .0724    116    1    100.0    5 
19/10/19   9:30   12.2   12.2   12.2    83    9.4   1.0     W   0.08   7.0     W   12.2   12.1   12.1   999.5  0.00  0.00   0.021   0.000   22.8    54   13.0   22.7   9.89  .0724    117    1    100.0    5 
19/10/19   9:35   12.2   12.2   12.2    83    9.4   1.0     W   0.08   5.0     W   12.2   12.1   12.1   999.6  0.00  0.00   0.021   0.000   22.8    54   13.0   22.7   9.89  .0724    117    1    100.0    5 
19/10/19   9:40   12.2   12.2   12.2    83    9.4   0.0     W   0.00   3.0     W   12.2   12.1   12.1   999.6  0.00  0.00   0.021   0.000   22.8    54   13.0   22.8   9.89  .0724    116    1    100.0    5 
19/10/19   9:45   12.2   12.2   12.2    83    9.4   1.0     W   0.08   6.0     W   12.2   12.1   12.1   999.6  0.00  0.00   0.021   0.000   22.8    54   13.0   22.8   9.89  .0724    117    1    100.0    5 
19/10/19   9:50   12.2   12.2   12.2    83    9.4   1.0     W   0.08   4.0     W   12.2   12.1   12.1   999.6  0.00  0.00   0.021   0.000   22.9    54   13.1   22.8   9.89  .0724    118    1    100.0    5 
19/10/19   9:55   12.3   12.3   12.2    83    9.5   0.0   WSW   0.00   3.0     W   12.3   12.2   12.2   999.6  0.00  0.00   0.021   0.000   22.9    54   13.1   22.9   9.88  .0724    117    1    100.0    5 
19/10/19  10:00   12.3   12.3   12.2    83    9.5   0.0     W   0.00   1.0   WSW   12.3   12.2   12.2   999.7  0.00  0.00   0.021   0.000   22.9    54   13.1   22.9   9.88  .0724    117    1    100.0    5 
19/10/19  10:05   12.3   12.3   12.3    83    9.5   0.0     W   0.00   4.0     W   12.3   12.2   12.2   999.7  0.00  0.00   0.021   0.000   22.9    54   13.1   22.9   9.88  .0724    116    1    100.0    5 
19/10/19  10:10   12.4   12.4   12.3    83    9.6   2.0   WSW   0.17   9.0   WSW   12.4   12.3   12.3   999.8  0.00  0.00   0.020   0.000   22.9    54   13.1   22.9   9.88  .0724    117    1    100.0    5 
19/10/19  10:15   12.6   12.6   12.4    83    9.7   2.0   WSW   0.17   9.0   WSW   12.6   12.4   12.4   999.8  0.00  0.00   0.020   0.000   23.0    54   13.2   23.0   9.88  .0723    117    1    100.0    5 
19/10/19  10:20   12.7   12.7   12.6    82    9.7   6.0   WSW   0.50  12.0   WSW   11.9   12.6   11.8   999.8  0.00  0.00   0.020   0.000   23.0    54   13.2   23.0   9.88  .0723    117    1    100.0    5 
19/10/19  10:25   12.8   12.8   12.7    82    9.8   3.0   WSW   0.25   7.0   WSW   12.8   12.7   12.7   999.8  0.00  0.00   0.019   0.000   23.1    54   13.2   23.1   9.88  .0723    117    1    100.0    5 
19/10/19  10:30   12.8   12.8   12.8    82    9.8   4.0   WSW   0.33  11.0   WSW   12.6   12.7   12.5   999.8  0.00  0.00   0.019   0.000   23.1    54   13.2   23.1   9.88  .0723    116    1    100.0    5 
19/10/19  10:35   12.9   12.9   12.8    82    9.9   4.0     W   0.33  10.0     W   12.7   12.8   12.6   999.9  0.00  0.00   0.019   0.000   23.1    53   13.0   23.1   9.71  .0723    117    1    100.0    5 
19/10/19  10:40   12.9   12.9   12.9    82    9.9   0.0   WSW   0.00   5.0   WSW   12.9   12.8   12.8   999.9  0.00  0.00   0.019   0.000   23.1    53   13.0   23.1   9.71  .0723    117    1    100.0    5 
19/10/19  10:45   12.8   12.9   12.8    81    9.7   2.0     W   0.17   8.0     W   12.8   12.7   12.7   999.9  0.00  0.00   0.019   0.000   23.1    53   13.0   23.1   9.71  .0723    117    1    100.0    5 
19/10/19  10:50   12.9   12.9   12.8    82    9.9   1.0     W   0.08   6.0   WSW   12.9   12.8   12.8   999.8  0.00  0.00   0.019   0.000   23.1    53   13.0   23.1   9.71  .0723    116    1    100.0    5 
19/10/19  10:55   13.0   13.0   12.9    81    9.8   0.0     W   0.00   3.0     W   13.0   12.8   12.8   999.9  0.00  0.00   0.019   0.000   23.2    53   13.1   23.1   9.70  .0723    117    1    100.0    5 
19/10/19  11:00   13.0   13.0   13.0    81    9.8   0.0     W   0.00   3.0     W   13.0   12.8   12.8   999.9  0.00  0.00   0.019   0.000   23.2    53   13.1   23.2   9.70  .0723    117    1    100.0    5 
19/10/19  11:05   13.1   13.1   13.0    81    9.9   0.0     W   0.00   3.0     W   13.1   12.9   12.9   999.9  0.00  0.00   0.018   0.000   23.2    53   13.1   23.2   9.70  .0723    117    1    100.0    5 
19/10/19  11:10   13.3   13.3   13.1    81   10.1   0.0     W   0.00   4.0   WSW   13.3   13.2   13.2  1000.0  0.00  0.00   0.017   0.000   23.2    53   13.1   23.2   9.70  .0723    116    1    100.0    5 
19/10/19  11:15   13.4   13.4   13.3    81   10.2   1.0     W   0.08   6.0     W   13.4   13.3   13.3  1000.1  0.00  0.00   0.017   0.000   23.3    53   13.2   23.3   9.69  .0723    117    1    100.0    5 
19/10/19  11:20   13.4   13.4   13.4    80   10.1   1.0   WSW   0.08   7.0   WSW   13.4   13.3   13.3  1000.1  0.00  0.00   0.017   0.000   23.3    53   13.2   23.3   9.69  .0723    117    1    100.0    5 
19/10/19  11:25   13.6   13.6   13.4    80   10.2   2.0     W   0.17  10.0     W   13.6   13.4   13.4  1000.2  0.00  0.00   0.017   0.000   23.3    53   13.2   23.3   9.69  .0723    117    1    100.0    5 
19/10/19  11:30   13.7   13.7   13.6    80   10.3   2.0     W   0.17   9.0     W   13.7   13.5   13.5  1000.2  0.00  0.00   0.016   0.000   23.4    53   13.3   23.4   9.69  .0723    117    1    100.0    5 
19/10/19  11:35   13.9   13.9   13.7    80   10.5   1.0   WSW   0.08   4.0     W   13.9   13.7   13.7  1000.1  0.00  0.00   0.015   0.000   23.4    53   13.3   23.5   9.68  .0723    117    1    100.0    5 
19/10/19  11:40   14.1   14.1   13.9    80   10.7   2.0   WSW   0.17  10.0     W   14.1   13.9   13.9  1000.2  0.00  0.00   0.015   0.000   23.4    53   13.3   23.5   9.68  .0723    117    1    100.0    5 
19/10/19  11:45   14.3   14.3   14.1    79   10.7   2.0   WSW   0.17   8.0     W   14.3   14.1   14.1  1000.2  0.00  0.00   0.014   0.000   23.5    53   13.4   23.6   9.68  .0722    116    1    100.0    5 
19/10/19  11:50   14.5   14.5   14.3    79   10.9   4.0   WSW   0.33  11.0   WSW   14.5   14.3   14.3  1000.2  0.00  0.00   0.013   0.000   23.6    53   13.4   23.6   9.67  .0722    117    1    100.0    5 
19/10/19  11:55   14.6   14.6   14.5    79   11.0   7.0   WSW   0.58  13.0   WSW   13.9   14.4   13.7  1000.2  0.00  0.00   0.013   0.000   23.6    53   13.4   23.6   9.67  .0722    117    1    100.0    5 
19/10/19  12:00   14.4   14.6   14.4    78   10.7   8.0   WSW   0.67  13.0   WSW   13.4   14.3   13.2  1000.2  0.00  0.00   0.014   0.000   23.6    53   13.5   23.7   9.67  .0722    117    1    100.0    5 
19/10/19  12:05   14.4   14.5   14.4    78   10.7   9.0   WSW   0.75  13.0   WSW   12.9   14.3   12.8  1000.2  0.00  0.00   0.014   0.000   23.7    53   13.5   23.8   9.67  .0722    117    1    100.0    5 
19/10/19  12:10   14.3   14.4   14.3    78   10.5   9.0   WSW   0.75  15.0   WSW   12.8   14.2   12.7  1000.2  0.00  0.00   0.014   0.000   23.7    53   13.5   23.8   9.67  .0722    116    1    100.0    5 
19/10/19  12:15   14.6   14.6   14.3    78   10.8   7.0   WSW   0.58  15.0   WSW   13.9   14.4   13.7  1000.2  0.00  0.00   0.013   0.000   23.7    53   13.6   23.8   9.66  .0722    117    1    100.0    5 
19/10/19  12:20   14.4   14.6   14.4    77   10.5  11.0   WSW   0.92  16.0   WSW   12.2   14.2   12.0  1000.3  0.00  0.00   0.014   0.000   23.7    53   13.6   23.8   9.66  .0722    116    1    100.0    5 
19/10/19  12:25   14.5   14.5   14.3    77   10.5   8.0   WSW   0.67  15.0   WSW   13.4   14.3   13.2  1000.2  0.00  0.00   0.013   0.000   23.8    53   13.6   23.9   9.66  .0722    114    1    100.0    5 
19/10/19  12:30   14.7   14.7   14.5    76   10.5   8.0   WSW   0.67  12.0   WSW   13.7   14.4   13.4  1000.2  0.00  0.00   0.013   0.000   23.8    53   13.6   23.9   9.66  .0722    117    1    100.0    5 
19/10/19  12:35   14.7   14.7   14.7    77   10.7   8.0   WSW   0.67  14.0   WSW   13.7   14.4   13.4  1000.3  0.00  0.00   0.013   0.000   23.8    53   13.7   24.0   9.65  .0721    116    1    100.0    5 
19/10/19  12:40   14.7   14.7   14.7    76   10.5   9.0   WSW   0.75  15.0   WSW   13.2   14.4   13.0  1000.4  0.00  0.00   0.013   0.000   23.9    53   13.7   24.1   9.65  .0721    116    1    100.0    5 
19/10/19  12:45   14.6   14.7   14.6    76   10.4   8.0   WSW   0.67  14.0   WSW   13.6   14.4   13.4  1000.3  0.00  0.00   0.013   0.000   23.9    53   13.8   24.1   9.65  .0721    117    1    100.0    5 
19/10/19  12:50   14.5   14.6   14.5    76   10.3   9.0   WSW   0.75  14.0   WSW   13.0   14.3   12.8  1000.4  0.00  0.00   0.013   0.000   23.9    53   13.8   24.1   9.65  .0721    117    1    100.0    5 
19/10/19  12:55   14.6   14.6   14.5    75   10.2  10.0   WSW   0.83  14.0   WSW   12.8   14.3   12.5  1000.4  0.00  0.00   0.013   0.000   24.0    53   13.8   24.2   9.65  .0721    117    1    100.0    5 
19/10/19  13:00   14.9   14.9   14.6    75   10.5   5.0   WSW   0.42  13.0   WSW   14.8   14.7   14.6  1000.3  0.00  0.00   0.012   0.000   24.0    52   13.5   24.1   9.55  .0721    117    1    100.0    5 
19/10/19  13:05   15.1   15.2   14.9    74   10.5   3.0   WSW   0.25  11.0   WSW   15.1   14.8   14.8  1000.3  0.00  0.00   0.011   0.000   24.1    52   13.6   24.2   9.54  .0721    117    1    100.0    5 
19/10/19  13:10   15.1   15.1   15.0    74   10.5   7.0   WSW   0.58  15.0   WSW   14.5   14.8   14.2  1000.2  0.00  0.00   0.011   0.000   24.1    52   13.6   24.2   9.54  .0721    116    1    100.0    5 
19/10/19  13:15   14.9   15.0   14.9    74   10.3   8.0   WSW   0.67  12.0   WSW   14.0   14.7   13.7  1000.3  0.00  0.00   0.012   0.000   24.1    52   13.6   24.2   9.54  .0721    116    1    100.0    5 
19/10/19  13:20   15.0   15.1   14.9    73   10.2   6.0   WSW   0.50  13.0   WSW   14.7   14.7   14.3  1000.3  0.00  0.00   0.012   0.000   24.2    52   13.7   24.3   9.54  .0721    117    1    100.0    5 
19/10/19  13:25   15.1   15.1   15.0    74   10.5   7.0   WSW   0.58  12.0   WSW   14.5   14.8   14.2  1000.3  0.00  0.00   0.011   0.000   24.2    52   13.7   24.3   9.54  .0721    117    1    100.0    5 
19/10/19  13:30   15.1   15.1   15.1    74   10.5   8.0   WSW   0.67  13.0   WSW   14.1   14.8   13.8  1000.3  0.00  0.00   0.011   0.000   24.2    52   13.7   24.3   9.54  .0720    117    1    100.0    5 
19/10/19  13:35   14.9   15.0   14.9    73   10.1  10.0   WSW   0.83  16.0   WSW   13.1   14.6   12.8  1000.4  0.00  0.00   0.012   0.000   24.2    52   13.7   24.3   9.54  .0721    114    1    100.0    5 
19/10/19  13:40   14.8   14.9   14.8    73   10.0  10.0    SW   0.83  14.0    SW   13.0   14.5   12.7  1000.4  0.00  0.00   0.012   0.000   24.3    52   13.8   24.4   9.54  .0720    117    1    100.0    5 
19/10/19  13:45   14.8   14.8   14.7    74   10.2  10.0    SW   0.83  14.0    SW   12.9   14.5   12.7  1000.5  0.00  0.00   0.012   0.000   24.3    52   13.8   24.4   9.54  .0720    117    1    100.0    5 
19/10/19  13:50   14.8   14.8   14.8    73   10.0  10.0    SW   0.83  16.0    SW   12.9   14.4   12.6  1000.5  0.00  0.00   0.012   0.000   24.3    52   13.8   24.4   9.53  .0720    117    1    100.0    5 
19/10/19  13:55   14.8   14.8   14.7    75   10.4   9.0    SW   0.75  15.0   WSW   13.3   14.5   13.1  1000.5  0.00  0.00   0.012   0.000   24.4    52   13.9   24.4   9.53  .0720    117    1    100.0    5 
19/10/19  14:00   14.8   14.8   14.7    74   10.2  10.0    SW   0.83  14.0    SW   12.9   14.5   12.7  1000.5  0.00  0.00   0.012   0.000   24.4    52   13.9   24.4   9.53  .0720    116    1    100.0    5 
19/10/19  14:05   14.8   14.9   14.8    74   10.2  11.0   WSW   0.92  18.0    SW   12.7   14.6   12.4  1000.6  0.00  0.00   0.012   0.000   24.4    52   13.9   24.4   9.53  .0720    118    1    100.0    5 
19/10/19  14:10   14.8   14.8   14.8    75   10.4  10.0    SW   0.83  15.0    SW   13.0   14.6   12.7  1000.7  0.00  0.00   0.012   0.000   24.4    52   13.9   24.5   9.53  .0720    117    1    100.0    5 
19/10/19  14:15   14.8   14.8   14.7    74   10.2  10.0    SW   0.83  14.0    SW   12.9   14.5   12.7  1000.7  0.00  0.00   0.012   0.000   24.4    52   13.9   24.5   9.53  .0720    116    1    100.0    5 
19/10/19  14:20   14.8   14.8   14.7    74   10.2  10.0    SW   0.83  15.0    SW   13.0   14.6   12.7  1000.7  0.00  0.00   0.012   0.000   24.5    52   14.0   24.6   9.53  .0720    116    1    100.0    5 
19/10/19  14:25   14.9   14.9   14.8    73   10.1  11.0   WSW   0.92  14.0   WSW   12.8   14.6   12.4  1000.7  0.00  0.00   0.012   0.000   24.5    52   14.0   24.6   9.53  .0720    116    1    100.0    5 
19/10/19  14:30   14.9   15.0   14.9    74   10.3  10.0    SW   0.83  15.0   WSW   13.1   14.6   12.8  1000.8  0.00  0.00   0.012   0.000   24.5    52   14.0   24.6   9.53  .0720    117    1    100.0    5 
19/10/19  14:35   14.8   14.9   14.8    74   10.2  11.0    SW   0.92  17.0    SW   12.6   14.5   12.3  1000.9  0.00  0.00   0.012   0.000   24.6    52   14.0   24.6   9.53  .0720    115    1    100.0    5 
19/10/19  14:40   14.8   14.8   14.7    74   10.2  11.0   WSW   0.92  17.0   WSW   12.6   14.5   12.3  1001.0  0.00  0.00   0.012   0.000   24.6    52   14.0   24.6   9.53  .0720    117    1    100.0    5 
19/10/19  14:45   14.8   14.8   14.7    74   10.2  11.0    SW   0.92  16.0   WSW   12.6   14.5   12.3  1001.0  0.00  0.00   0.012   0.000   24.6    52   14.1   24.7   9.52  .0720    117    1    100.0    5 
19/10/19  14:50   14.8   14.8   14.8    74   10.2  11.0    SW   0.92  15.0   WSW   12.6   14.5   12.3  1000.9  0.00  0.00   0.012   0.000   24.6    52   14.1   24.7   9.52  .0720    117    1    100.0    5 
19/10/19  14:55   14.7   14.8   14.7    74   10.1  12.0    SW   1.00  16.0   WSW   12.3   14.4   11.9  1001.0  0.00  0.00   0.013   0.000   24.7    52   14.2   24.7   9.52  .0720    116    1    100.0    5 
19/10/19  15:00   14.7   14.7   14.7    74   10.1  12.0   WSW   1.00  16.0    SW   12.3   14.4   11.9  1001.0  0.00  0.00   0.013   0.000   24.7    52   14.2   24.7   9.52  .0720    116    1    100.0    5 
19/10/19  15:05   14.7   14.8   14.7    75   10.3  11.0   WSW   0.92  17.0   WSW   12.6   14.4   12.3  1001.0  0.00  0.00   0.013   0.000   24.7    52   14.2   24.8   9.52  .0719    117    1    100.0    5 
19/10/19  15:10   14.8   14.8   14.7    74   10.2  10.0    SW   0.83  15.0    SW   12.9   14.5   12.7  1001.0  0.00  0.00   0.012   0.000   24.7    52   14.2   24.8   9.52  .0719    116    1    100.0    5 
19/10/19  15:15   14.8   14.9   14.8    75   10.4  10.0   WSW   0.83  16.0    SW   13.0   14.6   12.7  1001.0  0.00  0.00   0.012   0.000   24.7    52   14.2   24.8   9.52  .0719    117    1    100.0    5 
19/10/19  15:20   14.5   14.8   14.5    75   10.1  12.0   WSW   1.00  15.0   WSW   12.0   14.2   11.7  1001.1  0.00  0.00   0.013   0.000   24.8    52   14.3   24.8   9.52  .0719    117    1    100.0    5 
19/10/19  15:25   14.7   14.7   14.5    75   10.3   9.0   WSW   0.75  14.0   WSW   13.2   14.4   12.9  1001.1  0.00  0.00   0.013   0.000   24.8    52   14.3   24.8   9.52  .0719    117    1    100.0    5 
19/10/19  15:30   14.8   14.8   14.7    74   10.2   9.0   WSW   0.75  13.0   WSW   13.4   14.6   13.1  1001.1  0.00  0.00   0.012   0.000   24.8    52   14.3   24.8   9.52  .0719    117    1    100.0    5 
19/10/19  15:35   14.8   15.0   14.8    73   10.0   8.0   WSW   0.67  14.0    SW   13.8   14.5   13.5  1001.1  0.00  0.00   0.012   0.000   24.8    52   14.3   24.8   9.52  .0719    116    1    100.0    5 
19/10/19  15:40   14.8   14.9   14.8    73   10.0  10.0   WSW   0.83  14.0   WSW   13.0   14.5   12.7  1001.2  0.00  0.00   0.012   0.000   24.8    52   14.3   24.8   9.52  .0719    115    1    100.0    5 
19/10/19  15:45   14.9   14.9   14.8    73   10.1   8.0   WSW   0.67  13.0   WSW   13.9   14.6   13.6  1001.2  0.00  0.00   0.012   0.000   24.9    52   14.4   24.9   9.51  .0719    117    1    100.0    5 
19/10/19  15:50   14.9   14.9   14.8    73   10.1   9.0   WSW   0.75  14.0   WSW   13.5   14.6   13.2  1001.3  0.00  0.00   0.012   0.000   24.9    52   14.4   24.9   9.51  .0719    116    1    100.0    5 
19/10/19  15:55   14.9   14.9   14.8    73   10.1   7.0   WSW   0.58  12.0   WSW   14.3   14.6   14.0  1001.2  0.00  0.00   0.012   0.000   24.9    52   14.4   24.9   9.51  .0719    117    1    100.0    5 
19/10/19  16:00   14.8   14.9   14.8    72    9.8   9.0   WSW   0.75  14.0   WSW   13.3   14.4   13.0  1001.3  0.00  0.00   0.012   0.000   24.9    52   14.4   24.9   9.51  .0719    116    1    100.0    5 
19/10/19  16:05   14.8   14.8   14.8    72    9.8   9.0   WSW   0.75  14.0   WSW   13.3   14.4   13.0  1001.3  0.00  0.00   0.012   0.000   24.9    52   14.4   24.9   9.51  .0719    116    1    100.0    5 
19/10/19  16:10   14.8   14.8   14.7    73   10.0   9.0   WSW   0.75  13.0   WSW   13.3   14.4   13.0  1001.2  0.00  0.00   0.012   0.000   24.9    52   14.4   24.9   9.51  .0719    118    1    100.0    5 
19/10/19  16:15   14.7   14.8   14.7    73    9.9   8.0   WSW   0.67  12.0   WSW   13.7   14.4   13.4  1001.3  0.00  0.00   0.013   0.000   25.0    52   14.5   25.0   9.51  .0719    117    1    100.0    5 
19/10/19  16:20   14.7   14.8   14.7    73    9.9   9.0   WSW   0.75  13.0   WSW   13.2   14.3   12.9  1001.3  0.00  0.00   0.013   0.000   25.0    52   14.5   25.0   9.51  .0719    117    1    100.0    5 
19/10/19  16:25   14.7   14.7   14.6    74   10.1   6.0   WSW   0.50  11.0   WSW   14.3   14.4   14.0  1001.3  0.00  0.00   0.013   0.000   25.0    52   14.5   25.0   9.51  .0719    117    1    100.0    5 
19/10/19  16:30   14.6   14.7   14.6    73    9.8   8.0   WSW   0.67  13.0   WSW   13.6   14.3   13.3  1001.4  0.00  0.00   0.013   0.000   25.0    52   14.5   25.0   9.51  .0719    117    1    100.0    5 
19/10/19  16:35   14.7   14.7   14.6    73    9.9   8.0   WSW   0.67  14.0   WSW   13.7   14.3   13.3  1001.5  0.00  0.00   0.013   0.000   25.0    52   14.5   25.0   9.51  .0719    116    1    100.0    5 
19/10/19  16:40   14.6   14.7   14.6    72    9.6  11.0   WSW   0.92  14.0   WSW   12.3   14.2   11.9  1001.5  0.00  0.00   0.013   0.000   25.1    52   14.5   25.1   9.51  .0719    117    1    100.0    5 
19/10/19  16:45   14.6   14.6   14.6    74   10.0   6.0   WSW   0.50  12.0   WSW   14.1   14.2   13.8  1001.5  0.00  0.00   0.013   0.000   25.1    52   14.5   25.1   9.51  .0719    116    1    100.0    5 
19/10/19  16:50   14.5   14.6   14.5    73    9.7   9.0   WSW   0.75  13.0    SW   13.0   14.2   12.7  1001.5  0.00  0.00   0.013   0.000   25.1    52   14.5   25.1   9.51  .0719    117    1    100.0    5 
19/10/19  16:55   14.4   14.5   14.4    72    9.4   9.0   WSW   0.75  13.0   WSW   12.9   14.0   12.5  1001.6  0.00  0.00   0.014   0.000   25.0    52   14.5   25.0   9.51  .0719    117    1    100.0    5 
19/10/19  17:00   14.4   14.4   14.4    73    9.6   8.0    SW   0.67  11.0   WSW   13.3   14.1   13.0  1001.6  0.00  0.00   0.014   0.000   25.1    52   14.5   25.1   9.51  .0719    117    1    100.0    5 
19/10/19  17:05   14.4   14.4   14.4    73    9.6   8.0   WSW   0.67  11.0   WSW   13.3   14.1   13.0  1001.6  0.00  0.00   0.014   0.000   25.1    52   14.5   25.1   9.51  .0719    116    1    100.0    5 
19/10/19  17:10   14.4   14.4   14.4    73    9.7   4.0   WSW   0.33  11.0   WSW   14.4   14.1   14.1  1001.7  0.00  0.00   0.014   0.000   25.0    52   14.5   25.0   9.51  .0719    116    1    100.0    5 
19/10/19  17:15   14.5   14.5   14.4    73    9.7   3.0   WSW   0.25  10.0   WSW   14.5   14.2   14.2  1001.7  0.00  0.00   0.013   0.000   25.1    52   14.5   25.1   9.51  .0719    118    1    100.0    5 
19/10/19  17:20   14.4   14.6   14.4    73    9.6   6.0   WSW   0.50  11.0   WSW   13.9   14.1   13.6  1001.8  0.00  0.00   0.014   0.000   25.0    52   14.5   25.0   9.51  .0719    117    1    100.0    5 
19/10/19  17:25   14.3   14.4   14.3    74    9.7   4.0   WSW   0.33  10.0   WSW   14.3   13.9   13.9  1001.7  0.00  0.00   0.014   0.000   25.0    52   14.5   25.0   9.51  .0719    116    1    100.0    5 
19/10/19  17:30   14.1   14.3   14.1    74    9.5   6.0   WSW   0.50  12.0    SW   13.6   13.8   13.3  1001.7  0.00  0.00   0.015   0.000   25.0    52   14.5   25.0   9.51  .0719    116    1    100.0    5 
19/10/19  17:35   14.1   14.1   14.1    74    9.5   5.0   WSW   0.42  10.0   WSW   13.8   13.7   13.4  1001.7  0.00  0.00   0.015   0.000   25.0    51   14.2   24.9   9.35  .0719    115    1    100.0    5 
19/10/19  17:40   14.1   14.1   14.0    74    9.5   1.0   WSW   0.08   8.0   WSW   14.1   13.7   13.7  1001.8  0.00  0.00   0.015   0.000   25.0    51   14.2   24.9   9.35  .0719    117    1    100.0    5 
19/10/19  17:45   14.1   14.1   14.1    74    9.5   4.0   WSW   0.33  10.0   WSW   14.1   13.7   13.7  1001.8  0.00  0.00   0.015   0.000   25.0    51   14.2   24.9   9.35  .0719    117    1    100.0    5 
19/10/19  17:50   14.0   14.1   14.0    75    9.6   2.0   WSW   0.17   8.0   WSW   14.0   13.7   13.7  1001.9  0.00  0.00   0.015   0.000   25.0    51   14.2   24.9   9.35  .0719    117    1    100.0    5 
19/10/19  17:55   13.8   14.0   13.8    73    9.1   1.0     W   0.08   6.0     W   13.8   13.5   13.5  1001.9  0.00  0.00   0.016   0.000   25.0    51   14.2   24.9   9.35  .0719    117    1    100.0    5 
19/10/19  18:00   13.7   13.8   13.7    73    8.9   1.0     W   0.08   6.0   WSW   13.7   13.3   13.3  1002.0  0.00  0.00   0.016   0.000   25.0    51   14.2   24.9   9.35  .0719    116    1    100.0    5 
19/10/19  18:05   13.6   13.7   13.6    74    9.1   1.0     W   0.08   8.0     W   13.6   13.3   13.3  1002.1  0.00  0.00   0.016   0.000   25.0    52   14.5   25.0   9.51  .0719    116    1    100.0    5 
19/10/19  18:10   13.5   13.6   13.5    74    9.0   1.0     W   0.08   6.0   WSW   13.5   13.2   13.2  1002.1  0.00  0.00   0.017   0.000   24.9    52   14.4   24.9   9.51  .0719    117    1    100.0    5 
19/10/19  18:15   13.4   13.5   13.4    74    8.9   1.0     W   0.08   6.0     W   13.4   13.1   13.1  1002.1  0.00  0.00   0.017   0.000   24.9    52   14.4   24.9   9.51  .0719    118    1    100.0    5 
19/10/19  18:20   13.4   13.4   13.4    74    8.8   0.0     W   0.00   3.0     W   13.4   13.1   13.1  1002.1  0.00  0.00   0.017   0.000   24.9    52   14.4   24.9   9.51  .0720    116    1    100.0    5 
19/10/19  18:25   13.3   13.4   13.3    74    8.8   0.0     W   0.00   4.0     W   13.3   13.0   13.0  1002.2  0.00  0.00   0.017   0.000   24.9    52   14.4   24.9   9.51  .0720    117    1    100.0    5 
19/10/19  18:30   13.3   13.3   13.3    74    8.8   1.0     W   0.08   7.0     W   13.3   13.0   13.0  1002.2  0.00  0.00   0.017   0.000   24.9    52   14.4   24.9   9.51  .0720    117    1    100.0    5 
19/10/19  18:35   13.3   13.3   13.3    75    9.0   0.0     W   0.00   5.0     W   13.3   13.0   13.0  1002.3  0.00  0.00   0.017   0.000   24.9    52   14.4   24.9   9.51  .0720    117    1    100.0    5 
19/10/19  18:40   13.3   13.3   13.3    75    8.9   0.0     W   0.00   3.0   WSW   13.3   12.9   12.9  1002.3  0.00  0.00   0.018   0.000   24.9    52   14.4   24.9   9.51  .0720    115    1    100.0    5 
19/10/19  18:45   13.3   13.3   13.2    75    8.9   0.0     W   0.00   3.0   WSW   13.3   12.9   12.9  1002.2  0.00  0.00   0.018   0.000   24.9    52   14.4   24.9   9.51  .0720    116    1    100.0    5 
19/10/19  18:50   13.2   13.2   13.2    75    8.9   0.0   WSW   0.00   3.0     W   13.2   12.9   12.9  1002.3  0.00  0.00   0.018   0.000   24.9    52   14.4   24.9   9.51  .0720    117    1    100.0    5 
19/10/19  18:55   13.2   13.2   13.2    76    9.0   0.0     W   0.00   4.0     W   13.2   12.9   12.9  1002.4  0.00  0.00   0.018   0.000   24.8    51   14.0   24.8   9.35  .0720    115    1    100.0    5 
19/10/19  19:00   13.1   13.2   13.1    76    9.0   0.0     W   0.00   1.0     W   13.1   12.8   12.8  1002.4  0.00  0.00   0.018   0.000   24.8    52   14.3   24.8   9.52  .0720    117    1    100.0    5 
19/10/19  19:05   13.1   13.1   13.1    77    9.1   0.0     W   0.00   2.0     W   13.1   12.8   12.8  1002.5  0.00  0.00   0.018   0.000   24.8    51   14.0   24.8   9.35  .0720    117    1    100.0    5 
19/10/19  19:10   13.1   13.1   13.1    77    9.1   0.0     W   0.00   4.0     W   13.1   12.8   12.8  1002.5  0.00  0.00   0.018   0.000   24.8    51   14.0   24.8   9.35  .0720    115    1    100.0    5 
19/10/19  19:15   13.1   13.1   13.1    77    9.1   0.0     W   0.00   1.0     W   13.1   12.8   12.8  1002.5  0.00  0.00   0.018   0.000   24.8    51   14.0   24.8   9.35  .0721    117    1    100.0    5 
19/10/19  19:20   13.1   13.1   13.1    77    9.1   0.0   ---   0.00   0.0   ---   13.1   12.8   12.8  1002.6  0.00  0.00   0.018   0.000   24.8    51   14.0   24.8   9.35  .0721    118    1    100.0    5 
19/10/19  19:25   13.0   13.1   13.0    77    9.1   0.0   ---   0.00   0.0   ---   13.0   12.8   12.8  1002.6  0.00  0.00   0.019   0.000   24.8    51   14.0   24.8   9.35  .0720    116    1    100.0    5 
19/10/19  19:30   13.0   13.1   13.0    77    9.1   0.0   ---   0.00   0.0   ---   13.0   12.8   12.8  1002.6  0.00  0.00   0.019   0.000   24.8    51   14.0   24.8   9.35  .0721    117    1    100.0    5 
19/10/19  19:35   12.9   13.0   12.9    77    9.0   0.0   ---   0.00   0.0   ---   12.9   12.7   12.7  1002.7  0.00  0.00   0.019   0.000   24.8    51   14.0   24.8   9.35  .0721    117    1    100.0    5 
19/10/19  19:40   12.9   12.9   12.9    78    9.2   0.0     W   0.00   1.0     W   12.9   12.7   12.7  1002.7  0.00  0.00   0.019   0.000   24.8    51   14.0   24.8   9.35  .0721    117    1    100.0    5 
19/10/19  19:45   12.9   12.9   12.9    78    9.1   0.0   ---   0.00   0.0   ---   12.9   12.7   12.7  1002.7  0.00  0.00   0.019   0.000   24.8    51   14.0   24.8   9.35  .0721    116    1    100.0    5 
19/10/19  19:50   12.8   12.9   12.8    78    9.1   0.0   ---   0.00   0.0   ---   12.8   12.6   12.6  1002.7  0.00  0.00   0.019   0.000   24.8    51   14.0   24.8   9.35  .0721    114    1    100.0    5 
19/10/19  19:55   12.8   12.8   12.8    78    9.0   0.0   ---   0.00   0.0   ---   12.8   12.6   12.6  1002.8  0.00  0.00   0.019   0.000   24.8    51   14.0   24.8   9.35  .0721    117    1    100.0    5 
19/10/19  20:00   12.7   12.8   12.7    78    8.9   0.0   ---   0.00   0.0   ---   12.7   12.4   12.4  1002.8  0.00  0.00   0.020   0.000   24.8    51   14.0   24.8   9.35  .0721    116    1    100.0    5 
19/10/19  20:05   12.6   12.7   12.6    78    8.8   0.0   ---   0.00   0.0   ---   12.6   12.3   12.3  1002.9  0.00  0.00   0.020   0.000   24.8    51   14.0   24.8   9.35  .0721    117    1    100.0    5 
19/10/19  20:10   12.4   12.6   12.4    78    8.7   0.0   ---   0.00   0.0   ---   12.4   12.2   12.2  1003.0  0.00  0.00   0.020   0.000   24.8    51   14.0   24.8   9.35  .0721    117    1    100.0    5 
19/10/19  20:15   12.3   12.4   12.3    78    8.6   0.0   ---   0.00   0.0   ---   12.3   12.1   12.1  1002.9  0.00  0.00   0.021   0.000   24.8    51   14.0   24.8   9.35  .0721    116    1    100.0    5 
19/10/19  20:20   12.1   12.3   12.1    78    8.4   0.0   ---   0.00   0.0   ---   12.1   11.9   11.9  1003.0  0.00  0.00   0.022   0.000   24.8    51   14.0   24.8   9.35  .0721    117    1    100.0    5 
19/10/19  20:25   11.9   12.1   11.9    78    8.2   0.0   ---   0.00   0.0   ---   11.9   11.7   11.7  1003.1  0.00  0.00   0.022   0.000   24.8    51   14.0   24.8   9.35  .0721    117    1    100.0    5 
19/10/19  20:30   11.8   11.9   11.8    78    8.1   0.0   ---   0.00   0.0   ---   11.8   11.6   11.6  1003.2  0.00  0.00   0.023   0.000   24.8    51   14.0   24.8   9.35  .0721    116    1    100.0    5 
19/10/19  20:35   11.6   11.7   11.6    79    8.1   0.0   ---   0.00   0.0   ---   11.6   11.4   11.4  1003.3  0.00  0.00   0.023   0.000   24.8    51   14.0   24.8   9.35  .0721    117    1    100.0    5 
19/10/19  20:40   11.4   11.6   11.4    79    7.9   0.0   ---   0.00   0.0   ---   11.4   11.3   11.3  1003.3  0.00  0.00   0.024   0.000   24.7    51   13.9   24.7   9.35  .0721    117    1    100.0    5 
19/10/19  20:45   11.3   11.4   11.3    79    7.8   0.0   ---   0.00   0.0   ---   11.3   11.1   11.1  1003.4  0.00  0.00   0.024   0.000   24.8    51   14.0   24.8   9.35  .0721    116    1    100.0    5 
19/10/19  20:50   11.2   11.3   11.2    79    7.7   0.0   ---   0.00   0.0   ---   11.2   11.0   11.0  1003.5  0.00  0.00   0.025   0.000   24.7    51   13.9   24.7   9.35  .0721    117    1    100.0    5 
19/10/19  20:55   11.0   11.2   11.0    79    7.5   0.0   ---   0.00   0.0   ---   11.0   10.9   10.9  1003.5  0.00  0.00   0.025   0.000   24.8    51   14.0   24.8   9.35  .0721    117    1    100.0    5 
19/10/19  21:00   10.8   11.0   10.8    79    7.3   0.0   ---   0.00   0.0   ---   10.8   10.7   10.7  1003.6  0.00  0.00   0.026   0.000   24.8    51   14.0   24.8   9.35  .0721    115    1    100.0    5 
19/10/19  21:05   10.7   10.8   10.7    79    7.2   0.0   ---   0.00   0.0   ---   10.7   10.6   10.6  1003.7  0.00  0.00   0.027   0.000   24.7    51   13.9   24.7   9.35  .0722    117    1    100.0    5 
19/10/19  21:10   10.6   10.7   10.6    80    7.2   0.0   ---   0.00   0.0   ---   10.6   10.5   10.5  1003.7  0.00  0.00   0.027   0.000   24.7    51   13.9   24.7   9.35  .0722    116    1    100.0    5 
19/10/19  21:15   10.4   10.6   10.4    80    7.1   0.0   ---   0.00   0.0   ---   10.4   10.4   10.4  1003.7  0.00  0.00   0.027   0.000   24.7    51   13.9   24.7   9.35  .0722    115    1    100.0    5 
19/10/19  21:20   10.3   10.4   10.3    80    7.0   0.0   ---   0.00   0.0   ---   10.3   10.3   10.3  1003.8  0.00  0.00   0.028   0.000   24.7    51   13.9   24.7   9.35  .0722    115    1    100.0    5 
19/10/19  21:25   10.3   10.3   10.3    80    7.0   0.0   ---   0.00   0.0   ---   10.3   10.3   10.3  1003.9  0.00  0.00   0.028   0.000   24.7    51   13.9   24.7   9.35  .0722    117    1    100.0    5 
19/10/19  21:30   10.2   10.3   10.2    80    6.9   0.0   ---   0.00   0.0   ---   10.2   10.2   10.2  1004.0  0.00  0.00   0.028   0.000   24.7    51   13.9   24.7   9.35  .0722    117    1    100.0    5 
19/10/19  21:35   10.1   10.2   10.1    80    6.8   0.0   ---   0.00   0.0   ---   10.1   10.1   10.1  1004.0  0.00  0.00   0.029   0.000   24.7    51   13.9   24.7   9.35  .0722    116    1    100.0    5 
19/10/19  21:40   10.1   10.1   10.1    81    6.9   0.0   ---   0.00   0.0   ---   10.1   10.1   10.1  1004.1  0.00  0.00   0.029   0.000   24.7    51   13.9   24.7   9.35  .0722    116    1    100.0    5 
19/10/19  21:45   10.1   10.1   10.0    81    6.9   0.0   ---   0.00   0.0   ---   10.1   10.1   10.1  1004.1  0.00  0.00   0.029   0.000   24.7    51   13.9   24.7   9.35  .0722    117    1    100.0    5 
19/10/19  21:50   10.1   10.1   10.1    81    6.9   0.0   ---   0.00   0.0   ---   10.1   10.1   10.1  1004.1  0.00  0.00   0.029   0.000   24.7    51   13.9   24.7   9.35  .0722    117    1    100.0    5 
19/10/19  21:55   10.1   10.1   10.1    81    6.9   0.0   ---   0.00   0.0   ---   10.1   10.1   10.1  1004.1  0.00  0.00   0.029   0.000   24.7    51   13.9   24.7   9.35  .0722    116    1    100.0    5 
19/10/19  22:00   10.1   10.1   10.1    81    6.9   0.0   ---   0.00   0.0   ---   10.1   10.1   10.1  1004.2  0.00  0.00   0.029   0.000   24.7    51   13.9   24.7   9.35  .0722    115    1    100.0    5 
19/10/19  22:05    9.9   10.1    9.9    81    6.8   0.0   ---   0.00   0.0   ---    9.9    9.9    9.9  1004.2  0.00  0.00   0.029   0.000   24.7    51   13.9   24.7   9.35  .0722    115    1    100.0    5 
19/10/19  22:10    9.9    9.9    9.9    81    6.8   0.0   ---   0.00   0.0   ---    9.9    9.9    9.9  1004.2  0.00  0.00   0.029   0.000   24.7    51   13.9   24.7   9.35  .0722    117    1    100.0    5 
19/10/19  22:15    9.8    9.9    9.8    81    6.7   0.0   ---   0.00   0.0   ---    9.8    9.8    9.8  1004.2  0.00  0.00   0.030   0.000   24.7    51   13.9   24.7   9.35  .0722    116    1    100.0    5 
19/10/19  22:20    9.8    9.8    9.8    81    6.7   0.0   ---   0.00   0.0   ---    9.8    9.8    9.8  1004.3  0.00  0.00   0.030   0.000   24.6    51   13.8   24.6   9.35  .0722    117    1    100.0    5 
19/10/19  22:25    9.7    9.8    9.7    82    6.7   0.0   ---   0.00   0.0   ---    9.7    9.7    9.7  1004.4  0.00  0.00   0.030   0.000   24.6    51   13.7   24.6   9.35  .0723    115    1    100.0    5 
19/10/19  22:30    9.6    9.7    9.6    82    6.7   0.0   ---   0.00   0.0   ---    9.6    9.6    9.6  1004.4  0.00  0.00   0.030   0.000   24.6    51   13.7   24.6   9.35  .0723    118    1    100.0    5 
19/10/19  22:35    9.6    9.6    9.6    82    6.6   0.0   ---   0.00   0.0   ---    9.6    9.6    9.6  1004.4  0.00  0.00   0.030   0.000   24.6    50   13.4   24.6   9.23  .0723    116    1    100.0    5 
19/10/19  22:40    9.5    9.6    9.5    82    6.6   0.0   ---   0.00   0.0   ---    9.5    9.5    9.5  1004.5  0.00  0.00   0.031   0.000   24.6    50   13.4   24.6   9.23  .0723    114    1    100.0    5 
19/10/19  22:45    9.4    9.5    9.4    82    6.5   0.0   ---   0.00   0.0   ---    9.4    9.4    9.4  1004.6  0.00  0.00   0.031   0.000   24.6    50   13.4   24.6   9.23  .0723    117    1    100.0    5 
19/10/19  22:50    9.3    9.4    9.3    82    6.4   0.0   ---   0.00   0.0   ---    9.3    9.3    9.3  1004.6  0.00  0.00   0.031   0.000   24.5    50   13.4   24.5   9.23  .0723    117    1    100.0    5 
19/10/19  22:55    9.3    9.3    9.3    82    6.4   0.0   ---   0.00   0.0   ---    9.3    9.3    9.3  1004.7  0.00  0.00   0.031   0.000   24.5    50   13.4   24.5   9.23  .0723    116    1    100.0    5 
19/10/19  23:00    9.3    9.3    9.3    82    6.4   0.0   ---   0.00   0.0   ---    9.3    9.3    9.3  1004.7  0.00  0.00   0.031   0.000   24.5    50   13.4   24.5   9.23  .0723    116    1    100.0    5 
19/10/19  23:05    9.3    9.3    9.3    82    6.4   0.0   ---   0.00   0.0   ---    9.3    9.3    9.3  1004.8  0.00  0.00   0.031   0.000   24.5    50   13.4   24.5   9.23  .0723    115    1    100.0    5 
19/10/19  23:10    9.2    9.3    9.2    82    6.3   0.0   ---   0.00   0.0   ---    9.2    9.2    9.2  1004.8  0.00  0.00   0.032   0.000   24.5    50   13.4   24.5   9.23  .0723    116    1    100.0    5 
19/10/19  23:15    9.2    9.2    9.2    82    6.3   0.0   ---   0.00   0.0   ---    9.2    9.2    9.2  1004.8  0.00  0.00   0.032   0.000   24.4    50   13.3   24.4   9.23  .0724    116    1    100.0    5 
19/10/19  23:20    9.1    9.2    9.1    82    6.1   0.0   ---   0.00   0.0   ---    9.1    9.1    9.1  1004.8  0.00  0.00   0.032   0.000   24.4    50   13.3   24.4   9.23  .0724    116    1    100.0    5 
19/10/19  23:25    9.0    9.1    9.0    82    6.1   0.0   ---   0.00   0.0   ---    9.0    8.9    8.9  1004.9  0.00  0.00   0.032   0.000   24.4    50   13.3   24.4   9.23  .0724    116    1    100.0    5 
19/10/19  23:30    8.9    9.0    8.9    83    6.2   0.0   ---   0.00   0.0   ---    8.9    8.9    8.9  1004.9  0.00  0.00   0.033   0.000   24.4    50   13.3   24.4   9.23  .0724    117    1    100.0    5 
19/10/19  23:35    8.9    8.9    8.9    82    6.0   0.0   ---   0.00   0.0   ---    8.9    8.8    8.8  1004.9  0.00  0.00   0.033   0.000   24.4    50   13.3   24.4   9.23  .0724    118    1    100.0    5 
19/10/19  23:40    8.8    8.9    8.8    83    6.1   0.0   ---   0.00   0.0   ---    8.8    8.8    8.8  1005.0  0.00  0.00   0.033   0.000   24.4    50   13.3   24.4   9.23  .0724    116    1    100.0    5 
19/10/19  23:45    8.8    8.8    8.8    83    6.0   0.0   ---   0.00   0.0   ---    8.8    8.8    8.8  1005.0  0.00  0.00   0.033   0.000   24.3    50   13.2   24.3   9.23  .0724    116    1    100.0    5 
19/10/19  23:50    8.7    8.8    8.7    83    6.0   0.0   ---   0.00   0.0   ---    8.7    8.7    8.7  1005.0  0.00  0.00   0.033   0.000   24.3    50   13.2   24.3   9.23  .0724    116    1    100.0    5 
19/10/19  23:55    8.7    8.7    8.6    83    5.9   0.0   ---   0.00   0.0   ---    8.7    8.6    8.6  1004.9  0.00  0.00   0.034   0.000   24.3    50   13.2   24.3   9.24  .0724    116    1    100.0    5 
20/10/19  00:00    8.6    8.6    8.6    83    5.8   0.0   ---   0.00   0.0   ---    8.6    8.5    8.5  1004.9  0.00  0.00   0.034   0.000   24.3    50   13.2   24.3   9.24  .0724    115    1    100.0    5 
20/10/19   0:05    8.5    8.6    8.5    83    5.8   0.0   ---   0.00   0.0   ---    8.5    8.4    8.4  1004.9  0.00  0.00   0.034   0.000   24.3    50   13.2   24.3   9.24  .0724    115    1    100.0    5 
20/10/19   0:10    8.4    8.5    8.4    83    5.7   0.0   ---   0.00   0.0   ---    8.4    8.4    8.4  1004.9  0.00  0.00   0.034   0.000   24.2    50   13.1   24.2   9.24  .0724    117    1    100.0    5 
20/10/19   0:15    8.4    8.5    8.4    83    5.7   0.0   ---   0.00   0.0   ---    8.4    8.4    8.4  1005.0  0.00  0.00   0.034   0.000   24.2    50   13.1   24.2   9.24  .0724    117    1    100.0    5 
20/10/19   0:20    8.3    8.4    8.3    83    5.6   0.0   ---   0.00   0.0   ---    8.3    8.3    8.3  1005.1  0.00  0.00   0.035   0.000   24.2    50   13.1   24.2   9.24  .0724    116    1    100.0    5 
20/10/19   0:25    8.3    8.3    8.3    83    5.6   0.0   ---   0.00   0.0   ---    8.3    8.2    8.2  1005.1  0.00  0.00   0.035   0.000   24.2    50   13.1   24.2   9.24  .0725    117    1    100.0    5 
20/10/19   0:30    8.2    8.3    8.2    83    5.5   0.0   ---   0.00   0.0   ---    8.2    8.2    8.2  1005.1  0.00  0.00   0.035   0.000   24.2    50   13.1   24.2   9.24  .0725    117    1    100.0    5 
20/10/19   0:35    8.2    8.2    8.2    83    5.5   0.0   ---   0.00   0.0   ---    8.2    8.2    8.2  1005.2  0.00  0.00   0.035   0.000   24.1    50   13.0   24.2   9.24  .0725    116    1    100.0    5 
20/10/19   0:40    8.2    8.2    8.2    83    5.5   0.0   ---   0.00   0.0   ---    8.2    8.1    8.1  1005.2  0.00  0.00   0.035   0.000   24.1    50   13.0   24.2   9.24  .0725    116    1    100.0    5 
20/10/19   0:45    8.2    8.2    8.2    83    5.5   0.0   ---   0.00   0.0   ---    8.2    8.1    8.1  1005.1  0.00  0.00   0.035   0.000   24.1    50   13.0   24.1   9.24  .0725    117    1    100.0    5 
20/10/19   0:50    8.2    8.2    8.2    83    5.5   0.0   ---   0.00   0.0   ---    8.2    8.1    8.1  1005.1  0.00  0.00   0.035   0.000   24.1    50   13.0   24.1   9.24  .0725    116    1    100.0    5 
20/10/19   0:55    8.1    8.2    8.1    83    5.4   0.0   ---   0.00   0.0   ---    8.1    8.1    8.1  1005.0  0.00  0.00   0.035   0.000   24.0    50   12.9   24.1   9.25  .0725    116    1    100.0    5 
20/10/19   1:00    8.1    8.1    8.1    84    5.6   0.0   ---   0.00   0.0   ---    8.1    8.1    8.1  1005.0  0.00  0.00   0.035   0.000   24.0    50   12.9   24.1   9.25  .0725    116    1    100.0    5 
20/10/19   1:05    8.1    8.1    8.1    84    5.5   0.0   ---   0.00   0.0   ---    8.1    8.1    8.1  1005.0  0.00  0.00   0.036   0.000   23.9    50   12.9   24.0   9.25  .0725    116    1    100.0    5 
20/10/19   1:10    8.0    8.1    8.0    84    5.5   0.0   ---   0.00   0.0   ---    8.0    8.0    8.0  1005.1  0.00  0.00   0.036   0.000   23.9    50   12.9   24.0   9.25  .0725    116    1    100.0    5 
20/10/19   1:15    8.0    8.0    8.0    84    5.5   0.0   ---   0.00   0.0   ---    8.0    8.0    8.0  1005.0  0.00  0.00   0.036   0.000   23.9    50   12.9   24.0   9.25  .0725    117    1    100.0    5 
20/10/19   1:20    8.0    8.0    8.0    84    5.5   0.0   ---   0.00   0.0   ---    8.0    8.0    8.0  1004.9  0.00  0.00   0.036   0.000   23.9    50   12.8   23.9   9.25  .0725    117    1    100.0    5 
20/10/19   1:25    7.9    8.0    7.9    84    5.4   0.0   ---   0.00   0.0   ---    7.9    7.9    7.9  1005.0  0.00  0.00   0.036   0.000   23.9    50   12.8   23.9   9.25  .0725    116    1    100.0    5 
20/10/19   1:30    7.9    7.9    7.9    84    5.4   0.0   ---   0.00   0.0   ---    7.9    7.9    7.9  1004.9  0.00  0.00   0.036   0.000   23.8    50   12.8   23.9   9.25  .0725    117    1    100.0    5 
20/10/19   1:35    7.9    7.9    7.9    84    5.4   0.0   ---   0.00   0.0   ---    7.9    7.9    7.9  1005.0  0.00  0.00   0.036   0.000   23.8    50   12.8   23.9   9.25  .0726    116    1    100.0    5 
20/10/19   1:40    7.9    7.9    7.9    84    5.4   0.0   ---   0.00   0.0   ---    7.9    7.9    7.9  1004.9  0.00  0.00   0.036   0.000   23.8    50   12.8   23.9   9.25  .0725    116    1    100.0    5 
20/10/19   1:45    7.9    8.0    7.9    84    5.4   0.0   ---   0.00   0.0   ---    7.9    7.9    7.9  1005.0  0.00  0.00   0.036   0.000   23.8    50   12.7   23.8   9.25  .0726    115    1    100.0    5 
20/10/19   1:50    7.9    8.0    7.9    84    5.4   0.0   ---   0.00   0.0   ---    7.9    7.9    7.9  1005.0  0.00  0.00   0.036   0.000   23.8    50   12.7   23.8   9.25  .0726    115    1    100.0    5 
20/10/19   1:55    7.9    7.9    7.9    84    5.4   0.0     W   0.00   1.0     W    7.9    7.9    7.9  1005.1  0.00  0.00   0.036   0.000   23.7    50   12.7   23.7   9.25  .0726    117    1    100.0    5 
20/10/19   2:00    8.0    8.0    7.9    84    5.5   0.0   ---   0.00   1.0     W    8.0    8.0    8.0  1005.1  0.00  0.00   0.036   0.000   23.7    50   12.7   23.7   9.25  .0726    117    1    100.0    5 
20/10/19   2:05    8.0    8.1    8.0    84    5.5   0.0   ---   0.00   0.0   ---    8.0    8.0    8.0  1005.2  0.00  0.00   0.036   0.000   23.7    50   12.6   23.6   9.25  .0726    116    1    100.0    5 
20/10/19   2:10    8.1    8.1    8.0    84    5.5   0.0   ---   0.00   0.0   ---    8.1    8.1    8.1  1005.3  0.00  0.00   0.036   0.000   23.7    50   12.6   23.6   9.25  .0726    116    1    100.0    5 
20/10/19   2:15    8.1    8.1    8.1    84    5.5   0.0   ---   0.00   0.0   ---    8.1    8.1    8.1  1005.2  0.00  0.00   0.036   0.000   23.6    50   12.6   23.6   9.25  .0726    117    1    100.0    5 
20/10/19   2:20    8.1    8.1    8.1    84    5.5   0.0   ---   0.00   0.0   ---    8.1    8.1    8.1  1005.2  0.00  0.00   0.036   0.000   23.6    50   12.6   23.6   9.25  .0726    117    1    100.0    5 
20/10/19   2:25    8.1    8.1    8.1    84    5.5   0.0   ---   0.00   0.0   ---    8.1    8.1    8.1  1005.3  0.00  0.00   0.036   0.000   23.6    50   12.6   23.6   9.25  .0726    117    1    100.0    5 
20/10/19   2:30    8.1    8.1    8.1    84    5.5   0.0   ---   0.00   0.0   ---    8.1    8.1    8.1  1005.2  0.00  0.00   0.036   0.000   23.6    50   12.5   23.5   9.25  .0727    116    1    100.0    5 
20/10/19   2:35    8.0    8.1    8.0    84    5.5   0.0   ---   0.00   0.0   ---    8.0    8.0    8.0  1005.2  0.00  0.00   0.036   0.000   23.6    50   12.5   23.5   9.25  .0727    117    1    100.0    5 
20/10/19   2:40    7.9    8.0    7.9    84    5.4   0.0   ---   0.00   0.0   ---    7.9    7.9    7.9  1005.2  0.00  0.00   0.036   0.000   23.5    50   12.5   23.4   9.25  .0727    117    1    100.0    5 
20/10/19   2:45    7.9    7.9    7.9    84    5.4   0.0   ---   0.00   0.0   ---    7.9    7.9    7.9  1005.3  0.00  0.00   0.036   0.000   23.5    50   12.5   23.4   9.25  .0727    115    1    100.0    5 
20/10/19   2:50    7.9    7.9    7.9    84    5.4   0.0   ---   0.00   0.0   ---    7.9    7.9    7.9  1005.4  0.00  0.00   0.036   0.000   23.4    50   12.4   23.3   9.25  .0727    117    1    100.0    5 
20/10/19   2:55    7.9    7.9    7.9    84    5.4   0.0   ---   0.00   0.0   ---    7.9    7.9    7.9  1005.3  0.00  0.00   0.036   0.000   23.4    50   12.4   23.3   9.25  .0727    116    1    100.0    5 
20/10/19   3:00    7.9    7.9    7.9    84    5.4   0.0   ---   0.00   0.0   ---    7.9    7.9    7.9  1005.3  0.00  0.00   0.036   0.000   23.4    50   12.4   23.2   9.25  .0727    116    1    100.0    5 
20/10/19   3:05    7.8    7.9    7.8    84    5.3   0.0   ---   0.00   0.0   ---    7.8    7.8    7.8  1005.3  0.00  0.00   0.036   0.000   23.4    50   12.4   23.2   9.25  .0727    115    1    100.0    5 
20/10/19   3:10    7.8    7.9    7.8    84    5.3   0.0   ---   0.00   0.0   ---    7.8    7.8    7.8  1005.2  0.00  0.00   0.036   0.000   23.3    50   12.3   23.2   9.25  .0727    116    1    100.0    5 
20/10/19   3:15    7.8    7.8    7.8    84    5.2   0.0   ---   0.00   0.0   ---    7.8    7.8    7.8  1005.2  0.00  0.00   0.037   0.000   23.3    50   12.3   23.2   9.25  .0727    116    1    100.0    5 
20/10/19   3:20    7.8    7.8    7.8    84    5.2   0.0   ---   0.00   0.0   ---    7.8    7.8    7.8  1005.2  0.00  0.00   0.037   0.000   23.3    50   12.3   23.2   9.25  .0727    116    1    100.0    5 
20/10/19   3:25    7.8    7.8    7.8    84    5.2   0.0   ---   0.00   0.0   ---    7.8    7.8    7.8  1005.3  0.00  0.00   0.037   0.000   23.3    50   12.3   23.1   9.25  .0727    117    1    100.0    5 
20/10/19   3:30    7.8    7.8    7.8    84    5.3   0.0   ---   0.00   0.0   ---    7.8    7.8    7.8  1005.3  0.00  0.00   0.036   0.000   23.3    50   12.3   23.1   9.25  .0727    117    1    100.0    5 
20/10/19   3:35    7.8    7.8    7.8    85    5.5   0.0   ---   0.00   0.0   ---    7.8    7.8    7.8  1005.3  0.00  0.00   0.036   0.000   23.2    50   12.2   23.1   9.25  .0728    117    1    100.0    5 
20/10/19   3:40    7.8    7.8    7.8    85    5.5   0.0   ---   0.00   0.0   ---    7.8    7.8    7.8  1005.3  0.00  0.00   0.036   0.000   23.2    50   12.2   23.1   9.25  .0728    116    1    100.0    5 
20/10/19   3:45    7.9    7.9    7.8    85    5.5   0.0   ---   0.00   0.0   ---    7.9    7.9    7.9  1005.4  0.00  0.00   0.036   0.000   23.2    50   12.2   23.1   9.25  .0728    117    1    100.0    5 
20/10/19   3:50    7.9    7.9    7.9    85    5.5   0.0   ---   0.00   0.0   ---    7.9    7.9    7.9  1005.5  0.00  0.00   0.036   0.000   23.2    50   12.2   22.9   9.25  .0728    116    1    100.0    5 
20/10/19   3:55    7.9    7.9    7.9    85    5.5   0.0   ---   0.00   0.0   ---    7.9    7.9    7.9  1005.5  0.00  0.00   0.036   0.000   23.2    49   11.9   23.0   9.05  .0728    115    1    100.0    5 
20/10/19   4:00    7.9    7.9    7.9    85    5.5   0.0   ---   0.00   0.0   ---    7.9    7.9    7.9  1005.6  0.00  0.00   0.036   0.000   23.2    49   11.9   23.0   9.05  .0728    117    1    100.0    5 
20/10/19   4:05    7.9    7.9    7.9    85    5.5   0.0   ---   0.00   0.0   ---    7.9    7.9    7.9  1005.6  0.00  0.00   0.036   0.000   23.2    49   11.9   22.9   9.05  .0728    116    1    100.0    5 
20/10/19   4:10    7.8    7.9    7.8    85    5.5   0.0   ---   0.00   0.0   ---    7.8    7.8    7.8  1005.6  0.00  0.00   0.036   0.000   23.1    49   11.8   22.9   9.05  .0728    116    1    100.0    5 
20/10/19   4:15    7.8    7.8    7.8    85    5.5   0.0   ---   0.00   0.0   ---    7.8    7.8    7.8  1005.7  0.00  0.00   0.036   0.000   23.1    50   12.1   22.9   9.25  .0728    118    1    100.0    5 
20/10/19   4:20    7.8    7.8    7.8    85    5.4   0.0   ---   0.00   0.0   ---    7.8    7.8    7.8  1005.7  0.00  0.00   0.037   0.000   23.1    49   11.8   22.8   9.05  .0729    117    1    100.0    5 
20/10/19   4:25    7.8    7.8    7.8    85    5.4   0.0   ---   0.00   0.0   ---    7.8    7.8    7.8  1005.7  0.00  0.00   0.037   0.000   23.1    49   11.8   22.8   9.05  .0729    116    1    100.0    5 
20/10/19   4:30    7.8    7.8    7.7    84    5.2   0.0   ---   0.00   0.0   ---    7.8    7.8    7.8  1005.8  0.00  0.00   0.037   0.000   23.1    49   11.8   22.8   9.05  .0729    117    1    100.0    5 
20/10/19   4:35    7.8    7.8    7.8    85    5.4   0.0   ---   0.00   0.0   ---    7.8    7.8    7.8  1005.9  0.00  0.00   0.037   0.000   23.0    49   11.7   22.7   9.05  .0729    116    1    100.0    5 
20/10/19   4:40    7.8    7.8    7.8    85    5.5   0.0   ---   0.00   0.0   ---    7.8    7.8    7.8  1006.0  0.00  0.00   0.036   0.000   23.0    49   11.7   22.7   9.05  .0729    116    1    100.0    5 
20/10/19   4:45    7.8    7.8    7.8    85    5.5   0.0   ---   0.00   0.0   ---    7.8    7.8    7.8  1006.0  0.00  0.00   0.036   0.000   22.9    49   11.7   22.7   9.05  .0729    116    1    100.0    5 
20/10/19   4:50    7.9    7.9    7.8    85    5.5   0.0   ---   0.00   0.0   ---    7.9    7.9    7.9  1006.0  0.00  0.00   0.036   0.000   22.9    49   11.7   22.7   9.05  .0729    116    1    100.0    5 
20/10/19   4:55    7.9    7.9    7.9    85    5.6   0.0    NW   0.00   1.0   WNW    7.9    7.9    7.9  1005.9  0.00  0.00   0.036   0.000   22.9    49   11.6   22.6   9.05  .0729    117    1    100.0    5 
20/10/19   5:00    8.0    8.0    7.9    85    5.6   0.0   NNW   0.00   3.0   NNW    8.0    8.0    8.0  1005.8  0.00  0.00   0.036   0.000   22.8    49   11.6   22.5   9.05  .0729    116    1    100.0    5 
20/10/19   5:05    8.1    8.1    8.0    85    5.7   0.0   NNW   0.00   5.0   NNW    8.1    8.1    8.1  1005.7  0.00  0.00   0.036   0.000   22.8    49   11.6   22.5   9.05  .0729    117    1    100.0    5 
20/10/19   5:10    8.1    8.1    8.1    85    5.7   1.0     N   0.08   5.0   NNW    8.1    8.1    8.1  1005.8  0.00  0.00   0.036   0.000   22.8    49   11.6   22.5   9.05  .0729    117    1    100.0    5 
20/10/19   5:15    8.1    8.1    8.1    85    5.7   0.0     N   0.00   5.0     N    8.1    8.1    8.1  1005.9  0.00  0.00   0.036   0.000   22.8    49   11.5   22.4   9.05  .0730    116    1    100.0    5 
20/10/19   5:20    8.1    8.1    8.1    85    5.7   0.0     N   0.00   2.0     N    8.1    8.1    8.1  1006.0  0.00  0.00   0.036   0.000   22.8    49   11.5   22.4   9.05  .0730    118    1    100.0    5 
20/10/19   5:25    8.1    8.1    8.1    85    5.7   0.0   ---   0.00   0.0   ---    8.1    8.1    8.1  1006.1  0.00  0.00   0.036   0.000   22.8    49   11.5   22.4   9.05  .0730    117    1    100.0    5 
20/10/19   5:30    8.1    8.1    8.1    85    5.7   0.0   ---   0.00   0.0   ---    8.1    8.1    8.1  1006.1  0.00  0.00   0.036   0.000   22.7    50   11.8   22.4   9.25  .0730    117    1    100.0    5 
20/10/19   5:35    8.1    8.1    8.1    85    5.7   0.0     N   0.00   4.0     N    8.1    8.1    8.1  1006.1  0.00  0.00   0.036   0.000   22.7    50   11.8   22.4   9.25  .0730    117    1    100.0    5 
20/10/19   5:40    8.1    8.1    8.1    85    5.7   1.0     N   0.08   4.0     N    8.1    8.1    8.1  1006.1  0.00  0.00   0.036   0.000   22.7    50   11.8   22.4   9.25  .0730    117    1    100.0    5 
20/10/19   5:45    8.0    8.1    8.0    85    5.6   0.0     N   0.00   6.0     N    8.0    8.0    8.0  1006.1  0.00  0.00   0.036   0.000   22.7    50   11.8   22.4   9.25  .0730    116    1    100.0    5 
20/10/19   5:50    8.0    8.1    8.0    85    5.6   1.0     N   0.08   7.0   NNE    8.0    8.0    8.0  1006.1  0.00  0.00   0.036   0.000   22.7    50   11.8   22.4   9.25  .0730    117    1    100.0    5 
20/10/19   5:55    8.0    8.0    7.9    85    5.6   1.0     N   0.08   7.0     N    8.0    8.0    8.0  1006.1  0.00  0.00   0.036   0.000   22.7    50   11.8   22.4   9.25  .0730    117    1    100.0    5 
20/10/19   6:00    7.9    8.0    7.9    85    5.6   0.0     N   0.00   5.0     N    7.9    7.9    7.9  1006.2  0.00  0.00   0.036   0.000   22.7    50   11.8   22.4   9.25  .0730    115    1    100.0    5 
20/10/19   6:05    7.9    7.9    7.9    85    5.6   0.0     N   0.00   5.0     N    7.9    7.9    7.9  1006.3  0.00  0.00   0.036   0.000   22.7    50   11.8   22.4   9.25  .0730    117    1    100.0    5 
20/10/19   6:10    7.9    7.9    7.9    85    5.6   0.0     N   0.00   4.0     N    7.9    7.9    7.9  1006.3  0.00  0.00   0.036   0.000   22.7    50   11.8   22.4   9.25  .0730    117    1    100.0    5 
20/10/19   6:15    7.9    7.9    7.9    85    5.5   0.0     N   0.00   1.0     N    7.9    7.9    7.9  1006.4  0.00  0.00   0.036   0.000   22.7    50   11.8   22.4   9.25  .0730    116    1    100.0    5 
20/10/19   6:20    7.8    7.9    7.8    85    5.5   0.0     N   0.00   3.0     N    7.8    7.8    7.8  1006.3  0.00  0.00   0.036   0.000   22.7    50   11.8   22.4   9.25  .0730    117    1    100.0    5 
20/10/19   6:25    7.8    7.8    7.8    85    5.5   1.0     N   0.08   7.0     N    7.8    7.8    7.8  1006.4  0.00  0.00   0.036   0.000   22.7    50   11.8   22.4   9.25  .0730    118    1    100.0    5 
75810